Terminal Aerodrome Forecast
Issued by NWS

Home | Current Version | Previous Version | Text Only | Print | Product List | Glossary On
Versions: 1 2 3 4 5 6 7 8 9 10 11 12 13 14 15 16 17 18 19 20
000
FTUS43 KDVN 131338 AAA
TAFCID
TAF AMD
KCID 131338Z 1314/1412 22012KT P6SM SCT110 BKN200
     FM131430 24015KT P6SM SCT110 BKN200
     FM131600 27020G26KT P6SM BKN080 BKN200
     FM131730 31027G36KT P6SM BKN040 OVC100
     FM140100 32020G27KT P6SM SCT025 OVC035
     FM140600 33013KT P6SM BKN035=

USA.gov is the U.S. government's official web portal to all federal, state and local government web resources and services.